Time;durP1;ratioP1;P1;durP2;ratioP2;P2;SDS_P1;SDS_P2;PMS_P1;PMS_P2;Temp;Humidity;BMP_temperature;BMP_pressure;BME280_temperature;BME280_humidity;BME280_pressure;Samples;Min_cycle;Max_cycle;Signal;HPM_P1;HPM_P2
2022/05/01 00:01:10;;;;;;;16.02;10.20;;;;;;;;;;5005159;28;20076;-62
2022/05/01 00:03:36;;;;;;;12.95;9.45;;;;;;;;;;5011148;28;20038;-63
2022/05/01 00:06:06;;;;;;;14.82;9.98;;;;;;;;;;5013540;28;20080;-63
2022/05/01 00:08:33;;;;;;;14.60;9.85;;;;;;;;;;5010925;28;20037;-62
2022/05/01 00:11:00;;;;;;;19.73;10.43;;;;;;;;;;5014771;28;20068;-62
2022/05/01 00:13:26;;;;;;;19.80;10.82;;;;;;;;;;5010864;28;20046;-62
2022/05/01 00:15:52;;;;;;;16.67;11.57;;;;;;;;;;5009061;28;20223;-62
2022/05/01 00:18:18;;;;;;;17.10;11.55;;;;;;;;;;5010419;28;20034;-62
2022/05/01 00:20:44;;;;;;;16.85;10.98;;;;;;;;;;5009389;28;20046;-62
2022/05/01 00:23:10;;;;;;;17.80;11.00;;;;;;;;;;5001630;28;20097;-62
2022/05/01 00:25:38;;;;;;;18.48;11.73;;;;;;;;;;5011472;28;20072;-62
2022/05/01 00:28:04;;;;;;;18.50;11.80;;;;;;;;;;4993880;28;20380;-62
2022/05/01 00:30:31;;;;;;;18.60;11.90;;;;;;;;;;5007589;28;20515;-63
2022/05/01 00:38:27;;;;;;;16.80;11.77;;;;;;;;;;5013722;28;20045;-62
2022/05/01 00:40:54;;;;;;;22.05;12.93;;;;;;;;;;5013946;28;20038;-62
2022/05/01 00:43:20;;;;;;;15.32;11.23;;;;;;;;;;5011020;28;20057;-62
2022/05/01 00:45:46;;;;;;;17.65;11.65;;;;;;;;;;5012939;28;20088;-62
2022/05/01 00:48:12;;;;;;;19.25;11.73;;;;;;;;;;5011472;28;20092;-62
2022/05/01 00:50:38;;;;;;;21.42;11.55;;;;;;;;;;5014139;28;20042;-62
2022/05/01 00:53:05;;;;;;;18.90;11.85;;;;;;;;;;5012552;28;20104;-62
2022/05/01 00:55:36;;;;;;;19.15;11.65;;;;;;;;;;5006245;28;20033;-62
2022/05/01 00:58:02;;;;;;;16.15;11.73;;;;;;;;;;5012277;28;20046;-62
2022/05/01 01:00:28;;;;;;;20.55;12.10;;;;;;;;;;5013204;28;20037;-62
2022/05/01 01:02:54;;;;;;;18.98;11.88;;;;;;;;;;5012791;28;20121;-62
2022/05/01 01:05:20;;;;;;;22.45;12.00;;;;;;;;;;5010558;28;20041;-62
2022/05/01 01:07:46;;;;;;;17.88;11.13;;;;;;;;;;5009883;28;20037;-62
2022/05/01 01:10:13;;;;;;;21.98;11.95;;;;;;;;;;4995539;28;20041;-62
2022/05/01 01:12:55;;;;;;;21.67;12.95;;;;;;;;;;5010584;28;20069;-62
2022/05/01 01:15:31;;;;;;;17.25;12.27;;;;;;;;;;5008938;28;20068;-62
2022/05/01 01:17:58;;;;;;;18.75;12.50;;;;;;;;;;5011926;28;20041;-62
2022/05/01 01:20:25;;;;;;;18.60;12.65;;;;;;;;;;5011698;28;20042;-62
2022/05/01 01:22:52;;;;;;;20.33;12.15;;;;;;;;;;5010539;28;20037;-62
2022/05/01 01:25:20;;;;;;;19.10;13.23;;;;;;;;;;5012442;28;20392;-62
2022/05/01 01:27:46;;;;;;;20.13;12.10;;;;;;;;;;5012029;28;20057;-62
2022/05/01 01:32:57;;;;;;;18.60;12.88;;;;;;;;;;5034902;23;20132;-61
2022/05/01 01:35:24;;;;;;;20.52;12.63;;;;;;;;;;5013172;28;20128;-61
2022/05/01 01:37:50;;;;;;;20.58;13.13;;;;;;;;;;5030368;28;20087;-61
2022/05/01 01:40:20;;;;;;;22.17;13.82;;;;;;;;;;5032163;28;20061;-61
2022/05/01 01:42:47;;;;;;;20.42;13.00;;;;;;;;;;5037378;28;20111;-61
2022/05/01 01:45:14;;;;;;;20.92;12.93;;;;;;;;;;5043114;28;20038;-61
2022/05/01 01:47:40;;;;;;;17.38;12.48;;;;;;;;;;5050780;28;20430;-61
2022/05/01 01:50:06;;;;;;;21.67;13.48;;;;;;;;;;5025794;28;20068;-61
2022/05/01 01:52:33;;;;;;;19.73;13.25;;;;;;;;;;5042063;28;20036;-61
2022/05/01 01:55:00;;;;;;;20.85;13.05;;;;;;;;;;5043828;28;20471;-61
2022/05/01 01:57:26;;;;;;;19.15;12.68;;;;;;;;;;5044332;28;20399;-61
2022/05/01 01:59:52;;;;;;;20.73;13.20;;;;;;;;;;5046422;28;20082;-60
2022/05/01 02:02:18;;;;;;;20.70;14.15;;;;;;;;;;5022708;28;20041;-60
2022/05/01 02:04:44;;;;;;;21.52;13.57;;;;;;;;;;5032333;28;20495;-60
2022/05/01 02:07:10;;;;;;;18.85;12.95;;;;;;;;;;5034740;28;20040;-60
2022/05/01 02:09:37;;;;;;;21.67;13.68;;;;;;;;;;5046502;28;20041;-61
2022/05/01 02:12:08;;;;;;;18.98;13.82;;;;;;;;;;5049753;28;20066;-60
2022/05/01 02:14:34;;;;;;;20.13;12.82;;;;;;;;;;5041606;28;20171;-61
2022/05/01 02:17:02;;;;;;;20.17;12.88;;;;;;;;;;5046706;28;20090;-61
2022/05/01 02:19:28;;;;;;;21.58;13.20;;;;;;;;;;5047574;28;20046;-61
2022/05/01 02:21:54;;;;;;;19.23;13.52;;;;;;;;;;5040105;28;20033;-61
2022/05/01 02:24:20;;;;;;;20.25;13.50;;;;;;;;;;5032115;28;20045;-61
2022/05/01 02:26:47;;;;;;;19.38;13.02;;;;;;;;;;5049298;28;20125;-61
2022/05/01 02:29:14;;;;;;;20.98;14.10;;;;;;;;;;5040745;28;20182;-61
2022/05/01 02:31:41;;;;;;;20.73;13.73;;;;;;;;;;5047781;28;20586;-60
2022/05/01 02:34:07;;;;;;;20.05;13.80;;;;;;;;;;5050448;28;20064;-61
2022/05/01 02:36:33;;;;;;;22.70;13.63;;;;;;;;;;5037981;28;20457;-60
2022/05/01 02:38:59;;;;;;;22.58;13.52;;;;;;;;;;5046677;28;20033;-61
2022/05/01 02:41:26;;;;;;;22.52;13.95;;;;;;;;;;5037602;28;20114;-61
2022/05/01 02:43:52;;;;;;;22.25;13.95;;;;;;;;;;5051110;28;20060;-61
2022/05/01 02:46:18;;;;;;;20.58;13.18;;;;;;;;;;5041733;28;20442;-61
2022/05/01 02:48:44;;;;;;;21.25;13.85;;;;;;;;;;5041728;28;20037;-61
2022/05/01 02:51:10;;;;;;;22.27;13.82;;;;;;;;;;5024063;28;20542;-61
2022/05/01 02:53:36;;;;;;;18.20;13.05;;;;;;;;;;5038475;28;20045;-61
2022/05/01 02:56:03;;;;;;;20.42;13.68;;;;;;;;;;5044433;28;20075;-61
2022/05/01 02:58:30;;;;;;;22.55;14.45;;;;;;;;;;5041569;28;20052;-61
2022/05/01 03:00:56;;;;;;;22.33;15.27;;;;;;;;;;5049337;28;20041;-61
2022/05/01 03:03:24;;;;;;;23.50;14.35;;;;;;;;;;5031480;28;20373;-62
2022/05/01 03:05:51;;;;;;;22.17;13.88;;;;;;;;;;5044609;28;20069;-61
2022/05/01 03:08:17;;;;;;;26.27;15.63;;;;;;;;;;5046757;28;20071;-61
2022/05/01 03:10:43;;;;;;;25.08;15.43;;;;;;;;;;5039225;28;20503;-61
2022/05/01 03:13:10;;;;;;;21.10;14.45;;;;;;;;;;5034498;28;20171;-61
2022/05/01 03:15:37;;;;;;;21.45;14.32;;;;;;;;;;5050857;28;20118;-61
2022/05/01 03:23:32;;;;;;;22.38;14.80;;;;;;;;;;5031047;28;20077;-61
2022/05/01 03:25:58;;;;;;;21.73;14.40;;;;;;;;;;5031549;28;20037;-61
2022/05/01 03:28:25;;;;;;;21.77;14.02;;;;;;;;;;5045177;28;20029;-61
2022/05/01 03:30:51;;;;;;;22.58;14.35;;;;;;;;;;5038191;28;20033;-61
2022/05/01 03:33:21;;;;;;;20.25;13.45;;;;;;;;;;5050611;28;20469;-61
2022/05/01 03:35:47;;;;;;;23.42;14.40;;;;;;;;;;5039963;28;20474;-61
2022/05/01 03:38:13;;;;;;;24.30;14.02;;;;;;;;;;5042482;28;20044;-61
2022/05/01 03:40:39;;;;;;;20.63;14.27;;;;;;;;;;5047038;28;20407;-61
2022/05/01 03:43:05;;;;;;;24.35;14.68;;;;;;;;;;5049764;28;20033;-61
2022/05/01 03:45:31;;;;;;;23.30;14.95;;;;;;;;;;5038843;28;20564;-61
2022/05/01 03:47:57;;;;;;;22.83;15.00;;;;;;;;;;5047026;28;20108;-61
2022/05/01 03:50:23;;;;;;;23.88;15.20;;;;;;;;;;5048195;28;20045;-61
2022/05/01 03:52:49;;;;;;;21.83;14.95;;;;;;;;;;5029872;28;20129;-61
2022/05/01 03:55:15;;;;;;;21.38;14.38;;;;;;;;;;5024155;28;20040;-61
2022/05/01 03:57:41;;;;;;;23.35;15.00;;;;;;;;;;5045272;28;20060;-61
2022/05/01 04:00:10;;;;;;;23.77;14.38;;;;;;;;;;5041638;28;20036;-61
2022/05/01 04:02:43;;;;;;;20.80;14.25;;;;;;;;;;5045003;28;20549;-61
2022/05/01 04:05:13;;;;;;;23.55;14.70;;;;;;;;;;5045918;28;20466;-61
2022/05/01 04:07:39;;;;;;;25.27;14.73;;;;;;;;;;5046732;28;20037;-61
2022/05/01 04:10:05;;;;;;;20.58;13.93;;;;;;;;;;5053275;28;20056;-61
2022/05/01 04:12:42;;;;;;;22.23;14.77;;;;;;;;;;5024101;28;20045;-61
2022/05/01 04:15:09;;;;;;;21.65;14.70;;;;;;;;;;5034750;28;20099;-61
2022/05/01 04:17:41;;;;;;;20.90;14.90;;;;;;;;;;5046672;28;20045;-61
2022/05/01 04:20:08;;;;;;;22.83;14.55;;;;;;;;;;5046111;28;20042;-61
2022/05/01 04:22:38;;;;;;;25.55;14.82;;;;;;;;;;5033821;28;20037;-61
2022/05/01 04:25:05;;;;;;;26.25;16.08;;;;;;;;;;5043023;28;20049;-61
2022/05/01 04:27:31;;;;;;;24.15;15.70;;;;;;;;;;5050186;28;20075;-61
2022/05/01 04:29:57;;;;;;;24.85;16.13;;;;;;;;;;5047508;28;20068;-61
2022/05/01 04:32:23;;;;;;;23.75;15.48;;;;;;;;;;5052891;28;20047;-61
2022/05/01 04:34:49;;;;;;;21.67;15.82;;;;;;;;;;5053149;28;20513;-60
2022/05/01 04:37:15;;;;;;;24.42;16.05;;;;;;;;;;5051879;28;20052;-61
2022/05/01 04:39:41;;;;;;;26.63;16.42;;;;;;;;;;5049628;28;20505;-60
2022/05/01 04:42:08;;;;;;;28.85;17.65;;;;;;;;;;5044377;28;20034;-61
2022/05/01 04:44:34;;;;;;;30.10;17.63;;;;;;;;;;5040544;28;20044;-61
2022/05/01 04:46:59;;;;;;;25.55;16.95;;;;;;;;;;5042079;28;20395;-61
2022/05/01 04:49:25;;;;;;;27.73;17.77;;;;;;;;;;5049764;28;20045;-61
2022/05/01 04:51:51;;;;;;;28.55;17.83;;;;;;;;;;5052100;28;20036;-60
2022/05/01 04:54:17;;;;;;;26.20;18.30;;;;;;;;;;5045040;28;20462;-61
2022/05/01 04:57:25;;;;;;;27.73;17.67;;;;;;;;;;5052543;28;20032;-61
2022/05/01 04:59:32;;;;;;;31.45;18.60;;;;;;;;;;5037437;28;20046;-60
2022/05/01 05:01:58;;;;;;;31.95;18.25;;;;;;;;;;5022961;28;20131;-61
2022/05/01 05:04:26;;;;;;;28.25;18.25;;;;;;;;;;5048795;28;20112;-60
2022/05/01 05:06:54;;;;;;;29.38;18.88;;;;;;;;;;5046566;28;20040;-61
2022/05/01 05:12:06;;;;;;;28.98;19.25;;;;;;;;;;5049961;28;20041;-61
2022/05/01 05:14:32;;;;;;;30.90;18.80;;;;;;;;;;5047528;28;20041;-61
2022/05/01 05:16:58;;;;;;;27.73;19.05;;;;;;;;;;5045121;28;20041;-60
2022/05/01 05:19:24;;;;;;;31.00;18.92;;;;;;;;;;5043057;28;20047;-60
2022/05/01 05:21:50;;;;;;;32.25;18.60;;;;;;;;;;5020364;28;20403;-61
2022/05/01 05:24:16;;;;;;;29.05;18.60;;;;;;;;;;5035819;28;20116;-61
2022/05/01 05:26:42;;;;;;;31.50;19.30;;;;;;;;;;5047408;28;20486;-60
2022/05/01 05:29:08;;;;;;;29.95;18.35;;;;;;;;;;5042551;28;20037;-61
2022/05/01 05:31:35;;;;;;;30.05;18.55;;;;;;;;;;5052468;28;20051;-61
2022/05/01 05:34:01;;;;;;;31.40;19.15;;;;;;;;;;5039045;28;20052;-60
2022/05/01 05:36:27;;;;;;;27.17;18.45;;;;;;;;;;5048968;28;20060;-61
2022/05/01 05:38:53;;;;;;;29.98;18.92;;;;;;;;;;5044871;28;20045;-61
2022/05/01 05:41:19;;;;;;;29.15;19.20;;;;;;;;;;5049667;28;20098;-60
2022/05/01 05:43:45;;;;;;;27.27;18.63;;;;;;;;;;5037332;28;20029;-60
2022/05/01 05:46:11;;;;;;;32.20;19.30;;;;;;;;;;5047622;28;20037;-61
2022/05/01 05:48:37;;;;;;;28.42;18.30;;;;;;;;;;5034325;28;20041;-60
2022/05/01 05:51:04;;;;;;;30.27;18.27;;;;;;;;;;5040847;28;20034;-60
2022/05/01 05:53:30;;;;;;;29.25;18.83;;;;;;;;;;5033475;28;20038;-61
2022/05/01 05:55:56;;;;;;;27.15;18.42;;;;;;;;;;5044199;28;20533;-60
2022/05/01 05:58:22;;;;;;;33.42;19.52;;;;;;;;;;5046912;28;20037;-60
2022/05/01 06:00:48;;;;;;;28.27;17.95;;;;;;;;;;5043930;28;20044;-61
2022/05/01 06:03:14;;;;;;;26.98;17.65;;;;;;;;;;5052401;28;20033;-61
2022/05/01 06:05:40;;;;;;;27.52;17.30;;;;;;;;;;5037118;28;20034;-61
2022/05/01 06:08:06;;;;;;;26.85;17.55;;;;;;;;;;5034641;28;20033;-60
2022/05/01 06:10:32;;;;;;;27.13;17.30;;;;;;;;;;5046598;28;20494;-60
2022/05/01 06:12:58;;;;;;;27.27;17.90;;;;;;;;;;5047710;28;20124;-60
2022/05/01 06:15:24;;;;;;;25.35;16.83;;;;;;;;;;5033430;28;20188;-60
2022/05/01 06:17:51;;;;;;;27.00;17.45;;;;;;;;;;5051351;28;20065;-61
2022/05/01 06:20:17;;;;;;;28.38;17.92;;;;;;;;;;5042288;28;20103;-60
2022/05/01 06:22:43;;;;;;;28.88;17.45;;;;;;;;;;5050375;28;20029;-61
2022/05/01 06:25:09;;;;;;;26.02;16.13;;;;;;;;;;5037059;28;20384;-60
2022/05/01 06:27:35;;;;;;;26.42;16.50;;;;;;;;;;5046578;28;20039;-61
2022/05/01 06:30:01;;;;;;;22.33;15.70;;;;;;;;;;5042883;28;20506;-60
2022/05/01 06:32:27;;;;;;;28.63;16.55;;;;;;;;;;5025652;28;20069;-60
2022/05/01 06:34:53;;;;;;;22.85;15.95;;;;;;;;;;5040006;28;20029;-60
2022/05/01 06:37:19;;;;;;;25.70;16.92;;;;;;;;;;5047557;28;20120;-60
2022/05/01 06:39:45;;;;;;;26.77;17.02;;;;;;;;;;5038619;28;20084;-60
2022/05/01 06:42:12;;;;;;;24.13;15.50;;;;;;;;;;5037596;28;20064;-60
2022/05/01 06:44:38;;;;;;;28.52;15.95;;;;;;;;;;5047540;28;20039;-60
2022/05/01 06:47:05;;;;;;;25.88;15.98;;;;;;;;;;5044531;28;20176;-60
2022/05/01 06:49:31;;;;;;;26.75;15.95;;;;;;;;;;5040485;28;20044;-60
2022/05/01 06:51:57;;;;;;;26.40;15.02;;;;;;;;;;5040001;28;20041;-60
2022/05/01 06:54:23;;;;;;;22.98;15.90;;;;;;;;;;5047558;28;20044;-61
2022/05/01 06:56:49;;;;;;;26.95;16.60;;;;;;;;;;5045761;28;20041;-60
2022/05/01 06:59:16;;;;;;;27.38;16.73;;;;;;;;;;5048830;28;20047;-61
2022/05/01 07:01:42;;;;;;;22.23;15.23;;;;;;;;;;5021948;28;20034;-60
2022/05/01 07:04:08;;;;;;;23.30;15.68;;;;;;;;;;5045345;28;20140;-60
2022/05/01 07:06:34;;;;;;;20.73;14.05;;;;;;;;;;5049987;28;20033;-60
2022/05/01 07:09:00;;;;;;;22.65;14.93;;;;;;;;;;5040663;28;20399;-60
2022/05/01 07:11:26;;;;;;;23.25;14.70;;;;;;;;;;5043706;28;20048;-61
2022/05/01 07:13:52;;;;;;;21.60;14.68;;;;;;;;;;5049317;28;20037;-60
2022/05/01 07:16:20;;;;;;;21.35;14.70;;;;;;;;;;5032620;28;20038;-60
2022/05/01 07:18:46;;;;;;;21.60;14.32;;;;;;;;;;5042798;28;20283;-60
2022/05/01 07:21:12;;;;;;;22.65;13.55;;;;;;;;;;5044406;28;20036;-60
2022/05/01 07:23:38;;;;;;;23.52;14.00;;;;;;;;;;5049572;28;20065;-60
2022/05/01 07:26:04;;;;;;;22.02;15.07;;;;;;;;;;5050559;28;20123;-60
2022/05/01 07:28:32;;;;;;;22.50;15.27;;;;;;;;;;5025268;28;20042;-60
2022/05/01 07:30:59;;;;;;;25.33;14.13;;;;;;;;;;5038374;28;20037;-60
2022/05/01 07:33:25;;;;;;;20.02;13.32;;;;;;;;;;5062114;22;20091;-64
2022/05/01 07:35:51;;;;;;;22.77;14.20;;;;;;;;;;5041444;28;20112;-64
2022/05/01 07:38:17;;;;;;;19.05;13.32;;;;;;;;;;5050164;28;20041;-64
2022/05/01 07:40:43;;;;;;;21.60;14.68;;;;;;;;;;5047005;28;20075;-64
2022/05/01 07:43:10;;;;;;;21.63;13.95;;;;;;;;;;5047920;28;20155;-63
2022/05/01 07:45:36;;;;;;;22.70;13.95;;;;;;;;;;5049566;28;20032;-64
2022/05/01 07:48:02;;;;;;;20.42;13.77;;;;;;;;;;5052586;28;20060;-63
2022/05/01 07:50:28;;;;;;;21.17;14.07;;;;;;;;;;5050549;28;20495;-63
2022/05/01 07:52:54;;;;;;;21.33;13.05;;;;;;;;;;5050792;28;20041;-64
2022/05/01 07:55:20;;;;;;;17.65;13.43;;;;;;;;;;5051842;28;20037;-63
2022/05/01 07:57:46;;;;;;;15.57;11.95;;;;;;;;;;5051836;28;20064;-64
2022/05/01 08:00:13;;;;;;;19.55;12.65;;;;;;;;;;5046091;28;20073;-64
2022/05/01 08:05:27;;;;;;;16.33;10.45;;;;;;;;;;5050964;28;20433;-63
2022/05/01 08:07:53;;;;;;;16.95;11.23;;;;;;;;;;5047859;28;20059;-64
2022/05/01 08:10:20;;;;;;;19.02;10.95;;;;;;;;;;5050845;28;20120;-63
2022/05/01 08:12:47;;;;;;;18.00;11.32;;;;;;;;;;5046776;28;20065;-63
2022/05/01 08:15:15;;;;;;;14.75;10.48;;;;;;;;;;5049941;28;20036;-63
2022/05/01 08:17:41;;;;;;;16.35;11.10;;;;;;;;;;5038222;28;20045;-63
2022/05/01 08:22:52;;;;;;;18.98;12.45;;;;;;;;;;5052371;28;20037;-63
2022/05/01 08:25:18;;;;;;;14.77;10.02;;;;;;;;;;5047409;28;20051;-63
2022/05/01 08:27:44;;;;;;;19.33;12.60;;;;;;;;;;5042732;28;20065;-63
2022/05/01 08:30:10;;;;;;;15.68;11.18;;;;;;;;;;5050143;28;20499;-63
2022/05/01 08:32:36;;;;;;;15.65;11.25;;;;;;;;;;5051954;28;20556;-63
2022/05/01 08:35:02;;;;;;;17.75;10.63;;;;;;;;;;5048679;28;20041;-63
2022/05/01 08:37:28;;;;;;;17.67;11.80;;;;;;;;;;5048397;28;20074;-63
2022/05/01 08:39:54;;;;;;;16.25;11.18;;;;;;;;;;5050820;28;20055;-62
2022/05/01 08:42:22;;;;;;;15.68;11.32;;;;;;;;;;5044440;28;20111;-62
2022/05/01 08:44:48;;;;;;;16.17;11.57;;;;;;;;;;5047863;28;20043;-63
2022/05/01 08:47:18;;;;;;;19.48;11.98;;;;;;;;;;5050795;28;20115;-62
2022/05/01 08:49:45;;;;;;;14.82;10.98;;;;;;;;;;5050497;28;20091;-63
2022/05/01 08:52:12;;;;;;;16.08;10.75;;;;;;;;;;5046018;28;20037;-62
2022/05/01 08:54:38;;;;;;;15.77;10.80;;;;;;;;;;5042585;28;20522;-63
2022/05/01 08:57:04;;;;;;;19.48;11.38;;;;;;;;;;5045969;28;20554;-64
2022/05/01 08:59:31;;;;;;;20.17;11.35;;;;;;;;;;5051656;28;20102;-63
2022/05/01 09:01:58;;;;;;;19.23;11.43;;;;;;;;;;5039679;28;20044;-64
2022/05/01 09:04:25;;;;;;;16.20;10.90;;;;;;;;;;5038757;28;20164;-63
2022/05/01 09:06:52;;;;;;;17.77;10.40;;;;;;;;;;5052868;28;20033;-63
2022/05/01 09:09:19;;;;;;;16.75;10.65;;;;;;;;;;5043062;28;20116;-64
2022/05/01 09:14:30;;;;;;;15.45;10.30;;;;;;;;;;5043631;28;20037;-64
2022/05/01 09:17:09;;;;;;;14.77;9.50;;;;;;;;;;5052505;28;20070;-64
2022/05/01 09:19:36;;;;;;;15.57;10.38;;;;;;;;;;5040308;28;20068;-64
2022/05/01 09:22:03;;;;;;;13.65;9.95;;;;;;;;;;5040476;28;20112;-64
2022/05/01 09:24:30;;;;;;;13.00;9.00;;;;;;;;;;5044051;28;20029;-64
2022/05/01 09:26:56;;;;;;;11.45;8.20;;;;;;;;;;5048435;28;20037;-62
2022/05/01 09:29:23;;;;;;;12.50;8.73;;;;;;;;;;5050866;28;20052;-62
2022/05/01 09:31:55;;;;;;;11.23;8.48;;;;;;;;;;5050166;28;20044;-62
2022/05/01 09:34:23;;;;;;;12.45;8.70;;;;;;;;;;5046661;28;20049;-62
2022/05/01 09:36:49;;;;;;;15.60;9.63;;;;;;;;;;5039718;28;20120;-62
2022/05/01 09:39:19;;;;;;;15.98;9.77;;;;;;;;;;5040983;28;20168;-61
2022/05/01 09:41:45;;;;;;;14.57;9.57;;;;;;;;;;5040339;28;20030;-61
2022/05/01 09:44:15;;;;;;;13.55;9.30;;;;;;;;;;5047601;28;20033;-60
2022/05/01 09:46:41;;;;;;;15.90;10.45;;;;;;;;;;5042486;28;20124;-59
2022/05/01 09:49:09;;;;;;;17.95;9.02;;;;;;;;;;5043536;28;20124;-60
2022/05/01 09:51:35;;;;;;;13.50;8.77;;;;;;;;;;5043338;28;20446;-59
2022/05/01 09:54:03;;;;;;;13.18;8.70;;;;;;;;;;5043221;28;20099;-60
2022/05/01 09:56:29;;;;;;;12.35;8.75;;;;;;;;;;5045082;28;20043;-60
2022/05/01 09:58:59;;;;;;;11.80;8.85;;;;;;;;;;5051456;28;20037;-61
2022/05/01 10:01:25;;;;;;;11.93;8.73;;;;;;;;;;5045449;28;20073;-61
2022/05/01 10:03:52;;;;;;;11.55;8.30;;;;;;;;;;5045992;28;20037;-62
2022/05/01 10:06:19;;;;;;;13.57;9.10;;;;;;;;;;5048792;28;20124;-61
2022/05/01 10:08:46;;;;;;;12.25;8.57;;;;;;;;;;5047993;28;20033;-61
2022/05/01 10:11:19;;;;;;;13.15;9.02;;;;;;;;;;5043696;28;20083;-61
2022/05/01 10:13:45;;;;;;;12.63;8.65;;;;;;;;;;5046514;28;20482;-61
2022/05/01 10:16:15;;;;;;;12.82;8.25;;;;;;;;;;5034496;28;20072;-61
2022/05/01 10:18:41;;;;;;;10.98;7.60;;;;;;;;;;5044858;28;20306;-61
2022/05/01 10:21:07;;;;;;;10.60;7.43;;;;;;;;;;5049609;28;20037;-60
2022/05/01 10:23:34;;;;;;;11.93;7.28;;;;;;;;;;5046345;28;20040;-61
2022/05/01 10:26:06;;;;;;;9.65;6.88;;;;;;;;;;5046650;28;20048;-62
2022/05/01 10:28:42;;;;;;;12.15;7.22;;;;;;;;;;5035827;28;20092;-62
2022/05/01 10:34:17;;;;;;;10.48;6.78;;;;;;;;;;5048817;28;20498;-62
2022/05/01 10:37:01;;;;;;;8.45;6.10;;;;;;;;;;5031206;28;20048;-62
2022/05/01 10:39:33;;;;;;;8.75;5.72;;;;;;;;;;5048115;28;20045;-62
2022/05/01 10:42:00;;;;;;;8.32;4.82;;;;;;;;;;5047109;28;20051;-62
2022/05/01 10:44:30;;;;;;;10.13;5.88;;;;;;;;;;5047206;28;20055;-62
2022/05/01 10:47:04;;;;;;;7.80;6.00;;;;;;;;;;5042019;28;20064;-62
2022/05/01 10:49:34;;;;;;;8.18;5.30;;;;;;;;;;5036708;28;20041;-62
2022/05/01 10:52:23;;;;;;;8.15;5.30;;;;;;;;;;5044948;28;20040;-62
2022/05/01 10:54:51;;;;;;;8.63;5.05;;;;;;;;;;5026598;28;20045;-62
2022/05/01 10:57:17;;;;;;;7.78;5.10;;;;;;;;;;5051025;28;20055;-62
2022/05/01 10:59:47;;;;;;;7.38;4.85;;;;;;;;;;5043841;28;20454;-62
2022/05/01 11:02:22;;;;;;;9.27;5.67;;;;;;;;;;5048830;28;20037;-62
2022/05/01 11:04:49;;;;;;;6.20;4.25;;;;;;;;;;5050099;28;20048;-62
2022/05/01 11:07:16;;;;;;;7.30;4.97;;;;;;;;;;5050311;28;20063;-61
2022/05/01 11:09:46;;;;;;;6.35;4.05;;;;;;;;;;5047434;28;20098;-62
2022/05/01 11:12:13;;;;;;;7.20;5.18;;;;;;;;;;5047386;28;20083;-62
2022/05/01 11:14:40;;;;;;;6.47;4.88;;;;;;;;;;5049445;28;20524;-62
2022/05/01 11:17:07;;;;;;;4.43;3.70;;;;;;;;;;5049126;28;20035;-62
2022/05/01 11:19:52;;;;;;;5.65;4.00;;;;;;;;;;5052714;28;20499;-62
2022/05/01 11:22:27;;;;;;;5.95;3.60;;;;;;;;;;5048256;28;20040;-62
2022/05/01 11:24:53;;;;;;;6.32;4.53;;;;;;;;;;5043671;28;20033;-62
2022/05/01 11:27:21;;;;;;;5.90;3.45;;;;;;;;;;5054313;28;20051;-62
2022/05/01 11:30:05;;;;;;;5.13;3.30;;;;;;;;;;5053185;28;20048;-62
2022/05/01 11:32:42;;;;;;;5.22;3.67;;;;;;;;;;5043059;28;20471;-62
2022/05/01 11:35:08;;;;;;;6.65;3.45;;;;;;;;;;5046376;28;20072;-62
2022/05/01 11:37:47;;;;;;;5.05;3.70;;;;;;;;;;5052981;28;20087;-61
2022/05/01 11:40:20;;;;;;;6.80;3.85;;;;;;;;;;5054663;28;20041;-62
2022/05/01 11:42:46;;;;;;;6.63;3.70;;;;;;;;;;5046545;28;20478;-62
2022/05/01 11:45:12;;;;;;;6.15;3.70;;;;;;;;;;5049644;28;20029;-62
2022/05/01 11:47:40;;;;;;;5.40;3.58;;;;;;;;;;5046068;28;20037;-61
2022/05/01 11:50:06;;;;;;;5.10;3.53;;;;;;;;;;5034946;28;20087;-60
2022/05/01 11:52:37;;;;;;;7.70;3.63;;;;;;;;;;5049386;28;20585;-60
2022/05/01 11:55:07;;;;;;;6.82;3.75;;;;;;;;;;5044382;28;20036;-61
2022/05/01 12:03:08;;;;;;;5.20;3.90;;;;;;;;;;5016105;28;20038;-60
2022/05/01 12:05:45;;;;;;;6.85;3.60;;;;;;;;;;5049962;28;20037;-60
2022/05/01 12:08:12;;;;;;;5.85;3.28;;;;;;;;;;5043301;28;20114;-60
2022/05/01 12:10:41;;;;;;;4.55;2.90;;;;;;;;;;5050701;28;20115;-59
2022/05/01 12:13:24;;;;;;;7.75;3.60;;;;;;;;;;5052072;28;20182;-60
2022/05/01 12:15:51;;;;;;;4.38;3.55;;;;;;;;;;5049025;28;20080;-60
2022/05/01 12:18:17;;;;;;;7.32;3.40;;;;;;;;;;5037938;28;20037;-60
2022/05/01 12:20:43;;;;;;;8.93;3.38;;;;;;;;;;5051509;28;20525;-60
2022/05/01 12:23:16;;;;;;;6.55;3.65;;;;;;;;;;5045949;28;20037;-60
2022/05/01 12:25:42;;;;;;;4.75;3.40;;;;;;;;;;5052375;28;20064;-60
2022/05/01 12:28:10;;;;;;;5.30;3.30;;;;;;;;;;5041607;28;20040;-60
2022/05/01 12:30:37;;;;;;;4.40;3.35;;;;;;;;;;5049029;28;20434;-60
2022/05/01 12:33:03;;;;;;;5.38;3.40;;;;;;;;;;5046911;28;20060;-60
2022/05/01 12:35:49;;;;;;;6.28;3.03;;;;;;;;;;5052835;28;20040;-60
2022/05/01 12:38:16;;;;;;;5.18;3.20;;;;;;;;;;5039892;28;20044;-60
2022/05/01 12:46:21;;;;;;;4.70;3.42;;;;;;;;;;5050402;28;20040;-59
2022/05/01 12:48:47;;;;;;;4.60;3.47;;;;;;;;;;5052638;28;20033;-60
2022/05/01 12:51:13;;;;;;;6.18;3.25;;;;;;;;;;5052338;28;20127;-59
2022/05/01 12:53:39;;;;;;;6.90;3.05;;;;;;;;;;5044116;28;20128;-60
2022/05/01 12:56:22;;;;;;;5.25;3.33;;;;;;;;;;5051075;28;20044;-60
2022/05/01 12:58:48;;;;;;;5.60;3.63;;;;;;;;;;5043926;28;20037;-60
2022/05/01 13:01:22;;;;;;;4.97;3.55;;;;;;;;;;5045000;28;20121;-60
2022/05/01 13:03:49;;;;;;;6.25;3.13;;;;;;;;;;5048219;28;20501;-59
2022/05/01 13:06:16;;;;;;;5.63;3.78;;;;;;;;;;5040892;28;20495;-60
2022/05/01 13:08:42;;;;;;;5.53;3.88;;;;;;;;;;5045665;28;20059;-60
2022/05/01 13:11:14;;;;;;;5.72;3.90;;;;;;;;;;5046888;28;20089;-59
2022/05/01 13:13:48;;;;;;;4.60;3.33;;;;;;;;;;5040645;28;20494;-60
2022/05/01 13:16:14;;;;;;;4.68;3.30;;;;;;;;;;5044195;28;20040;-60
2022/05/01 13:18:41;;;;;;;6.20;3.80;;;;;;;;;;5043705;28;20041;-60
2022/05/01 13:21:07;;;;;;;5.78;3.22;;;;;;;;;;5043009;28;20038;-60
2022/05/01 13:23:33;;;;;;;4.68;3.10;;;;;;;;;;5047496;28;20462;-60
2022/05/01 13:26:01;;;;;;;4.80;3.22;;;;;;;;;;5047954;28;20064;-60
2022/05/01 13:28:27;;;;;;;4.65;3.22;;;;;;;;;;5041374;28;20041;-60
2022/05/01 13:30:53;;;;;;;4.80;3.22;;;;;;;;;;5051759;28;20518;-60
2022/05/01 13:33:19;;;;;;;4.28;3.13;;;;;;;;;;5065718;22;20085;-57
2022/05/01 13:35:45;;;;;;;4.00;3.20;;;;;;;;;;5049660;28;20040;-59
2022/05/01 13:38:11;;;;;;;4.63;3.33;;;;;;;;;;5047587;28;20029;-58
2022/05/01 13:46:06;;;;;;;6.30;3.05;;;;;;;;;;5050492;28;20076;-58
2022/05/01 13:48:32;;;;;;;4.95;3.42;;;;;;;;;;5049513;28;20029;-59
2022/05/01 13:50:58;;;;;;;4.82;3.50;;;;;;;;;;5049690;28;20082;-58
2022/05/01 13:53:25;;;;;;;4.72;3.42;;;;;;;;;;5043264;28;20430;-58
2022/05/01 13:56:00;;;;;;;5.15;3.78;;;;;;;;;;5045222;28;20040;-59
2022/05/01 13:58:44;;;;;;;5.47;3.83;;;;;;;;;;5050268;28;20067;-58
2022/05/01 14:01:11;;;;;;;6.30;4.18;;;;;;;;;;5045079;28;20124;-59
2022/05/01 14:03:37;;;;;;;5.63;3.70;;;;;;;;;;5040026;28;20044;-58
2022/05/01 14:06:03;;;;;;;7.45;4.03;;;;;;;;;;5048334;28;20558;-59
2022/05/01 14:08:29;;;;;;;5.45;3.50;;;;;;;;;;5048684;28;20047;-58
2022/05/01 14:10:55;;;;;;;3.75;3.35;;;;;;;;;;5042540;28;20418;-58
2022/05/01 14:13:21;;;;;;;4.95;3.53;;;;;;;;;;5045207;28;20048;-59
2022/05/01 14:15:48;;;;;;;5.35;3.65;;;;;;;;;;5047534;28;20060;-59
2022/05/01 14:18:16;;;;;;;7.85;4.60;;;;;;;;;;5046079;28;20399;-58
2022/05/01 14:20:43;;;;;;;6.07;4.20;;;;;;;;;;5049426;28;20044;-59
2022/05/01 14:23:12;;;;;;;7.97;4.38;;;;;;;;;;5041897;28;20090;-58
2022/05/01 14:25:38;;;;;;;5.18;4.30;;;;;;;;;;5046824;28;20423;-58
2022/05/01 14:28:04;;;;;;;6.90;4.75;;;;;;;;;;5044509;28;20037;-58
2022/05/01 14:30:30;;;;;;;7.63;4.00;;;;;;;;;;5043895;28;20090;-58
2022/05/01 14:32:59;;;;;;;8.73;4.15;;;;;;;;;;5038279;28;20507;-58
2022/05/01 14:35:28;;;;;;;9.13;4.35;;;;;;;;;;5048535;28;20040;-58
2022/05/01 14:38:03;;;;;;;5.50;4.00;;;;;;;;;;5040789;28;20045;-58
2022/05/01 14:40:29;;;;;;;6.53;3.85;;;;;;;;;;5036360;28;20045;-59
2022/05/01 14:43:00;;;;;;;10.20;4.57;;;;;;;;;;5047977;28;20037;-58
2022/05/01 14:45:27;;;;;;;4.88;3.40;;;;;;;;;;5050521;28;20120;-58
2022/05/01 14:47:59;;;;;;;6.65;3.92;;;;;;;;;;5040201;28;20395;-58
2022/05/01 14:50:26;;;;;;;6.40;4.10;;;;;;;;;;5045810;28;20487;-58
2022/05/01 14:52:53;;;;;;;6.20;4.03;;;;;;;;;;5044762;28;20529;-57
2022/05/01 14:55:24;;;;;;;6.57;3.72;;;;;;;;;;5039661;28;20041;-57
2022/05/01 14:57:52;;;;;;;6.30;4.10;;;;;;;;;;5046398;28;20044;-58
2022/05/01 15:08:40;;;;;;;5.05;3.53;;;;;;;;;;5049460;28;20490;-58
2022/05/01 15:11:06;;;;;;;6.90;3.83;;;;;;;;;;5036028;28;20047;-58
2022/05/01 15:13:32;;;;;;;5.78;3.72;;;;;;;;;;5044815;28;20086;-58
2022/05/01 15:16:03;;;;;;;5.75;3.72;;;;;;;;;;5046000;28;20123;-58
2022/05/01 15:18:51;;;;;;;5.97;3.72;;;;;;;;;;5050412;28;20888;-58
2022/05/01 15:21:17;;;;;;;5.55;4.00;;;;;;;;;;5025506;28;20127;-58